createdAt,value
2022-07-30T00:03:53.810Z,6.10
2022-07-30T00:08:51.394Z,4.97
2022-07-30T00:13:49.703Z,5.78
2022-07-30T00:18:48.041Z,6.28
2022-07-30T00:24:01.242Z,6.28
2022-07-30T00:29:09.437Z,4.07
2022-07-30T00:34:09.387Z,4.63
2022-07-30T00:39:10.063Z,3.90
2022-07-30T00:44:11.032Z,3.35
2022-07-30T00:49:12.666Z,3.38
2022-07-30T00:54:15.722Z,3.75
2022-07-30T00:59:13.968Z,4.03
2022-07-30T01:04:12.421Z,4.47
2022-07-30T01:09:14.416Z,3.90
2022-07-30T01:14:16.003Z,3.67
2022-07-30T01:19:46.023Z,4.68
2022-07-30T01:24:58.915Z,4.28
2022-07-30T01:29:59.082Z,5.32
2022-07-30T01:35:01.769Z,4.55
2022-07-30T01:40:00.542Z,4.57
2022-07-30T01:45:02.641Z,5.53
2022-07-30T01:50:03.656Z,5.60
2022-07-30T01:55:20.793Z,5.50
2022-07-30T02:00:23.117Z,5.53
2022-07-30T02:05:21.523Z,5.32
2022-07-30T02:10:36.600Z,4.90
2022-07-30T02:15:46.839Z,4.72
2022-07-30T02:20:56.649Z,4.68
2022-07-30T02:25:57.126Z,5.15
2022-07-30T02:31:01.273Z,5.25
2022-07-30T02:36:03.605Z,4.95
2022-07-30T02:41:23.205Z,5.30
2022-07-30T02:46:23.733Z,5.53
2022-07-30T02:51:58.059Z,5.65
2022-07-30T02:57:01.225Z,5.25
2022-07-30T03:02:03.610Z,5.88
2022-07-30T03:07:08.560Z,6.28
2022-07-30T03:12:07.286Z,5.78
2022-07-30T03:17:09.394Z,6.28
2022-07-30T03:22:08.677Z,5.85
2022-07-30T03:27:10.502Z,6.45
2022-07-30T03:32:13.556Z,6.05
2022-07-30T03:42:12.816Z,6.22
2022-07-30T03:47:12.917Z,5.47
2022-07-30T03:52:17.626Z,6.70
2022-07-30T03:57:20.510Z,7.10
2022-07-30T04:02:20.874Z,6.82
2022-07-30T04:07:47.884Z,6.50
2022-07-30T04:12:50.826Z,6.85
2022-07-30T04:17:53.439Z,6.57
2022-07-30T04:22:55.440Z,7.77
2022-07-30T04:28:02.854Z,7.45
2022-07-30T04:33:15.666Z,7.72
2022-07-30T04:38:34.202Z,8.35
2022-07-30T04:43:33.997Z,8.55
2022-07-30T04:48:36.150Z,8.02
2022-07-30T04:53:44.960Z,9.98
2022-07-30T04:58:47.346Z,10.93
2022-07-30T05:03:49.808Z,9.85
2022-07-30T05:08:51.520Z,10.90
2022-07-30T05:13:52.400Z,11.23
2022-07-30T05:18:54.303Z,12.18
2022-07-30T05:23:53.908Z,11.30
2022-07-30T05:29:20.070Z,11.13
2022-07-30T05:34:27.190Z,10.77
2022-07-30T05:39:28.559Z,10.15
2022-07-30T05:44:47.356Z,10.50
2022-07-30T05:49:47.363Z,10.57
2022-07-30T05:54:46.680Z,9.73
2022-07-30T06:00:06.340Z,9.98
2022-07-30T06:05:33.188Z,9.95
2022-07-30T06:10:34.179Z,9.93
2022-07-30T06:15:34.903Z,9.43
2022-07-30T06:20:36.241Z,10.15
2022-07-30T06:25:59.670Z,9.80
2022-07-30T06:30:59.523Z,8.85
2022-07-30T06:36:15.581Z,9.27
2022-07-30T06:41:23.021Z,8.60
2022-07-30T06:46:28.691Z,8.80
2022-07-30T06:51:27.389Z,10.25
2022-07-30T06:56:31.972Z,10.02
2022-07-30T07:01:37.894Z,7.85
2022-07-30T07:06:39.557Z,8.93
2022-07-30T07:11:43.819Z,7.28
2022-07-30T07:16:50.803Z,7.63
2022-07-30T07:22:27.554Z,8.00
2022-07-30T07:27:27.497Z,7.50
2022-07-30T07:37:30.508Z,6.50
2022-07-30T07:42:29.081Z,27.27
2022-07-30T07:47:28.990Z,7.20
2022-07-30T07:52:41.465Z,7.22
2022-07-30T07:57:40.714Z,6.75
2022-07-30T08:02:44.149Z,5.47
2022-07-30T08:07:43.099Z,6.90
2022-07-30T08:12:41.459Z,5.97
2022-07-30T08:17:45.750Z,6.20
2022-07-30T08:22:55.723Z,7.05
2022-07-30T08:27:57.232Z,7.28
2022-07-30T08:32:56.442Z,7.32
2022-07-30T08:37:55.755Z,7.90
2022-07-30T08:42:55.632Z,7.95
2022-07-30T08:47:55.140Z,7.53
2022-07-30T08:52:59.351Z,6.45
2022-07-30T08:57:57.964Z,6.70
2022-07-30T09:02:57.671Z,6.82
2022-07-30T09:07:59.486Z,6.28
2022-07-30T09:13:00.120Z,6.85
2022-07-30T09:18:04.379Z,6.72
2022-07-30T09:23:07.114Z,6.68
2022-07-30T09:28:34.598Z,6.82
2022-07-30T09:33:47.345Z,6.28
2022-07-30T09:39:07.022Z,6.97
2022-07-30T09:44:38.522Z,6.80
2022-07-30T09:49:37.825Z,6.03
2022-07-30T09:54:53.055Z,5.78
2022-07-30T10:00:23.434Z,5.95
2022-07-30T10:05:51.257Z,5.68
2022-07-30T10:10:52.457Z,6.88
2022-07-30T10:15:51.165Z,6.35
2022-07-30T10:20:53.685Z,5.75
2022-07-30T10:26:13.365Z,5.18
2022-07-30T10:31:48.836Z,5.18
2022-07-30T10:36:57.890Z,5.45
2022-07-30T10:42:08.807Z,5.20
2022-07-30T10:47:09.361Z,4.80
2022-07-30T10:52:08.630Z,6.13
2022-07-30T10:57:23.138Z,5.22
2022-07-30T11:02:37.242Z,5.38
2022-07-30T11:13:06.424Z,4.97
2022-07-30T11:18:13.139Z,5.25
2022-07-30T11:23:19.260Z,5.25
2022-07-30T11:28:42.472Z,4.75
2022-07-30T11:33:41.970Z,4.82
2022-07-30T11:38:53.830Z,4.13
2022-07-30T11:44:31.108Z,5.27
2022-07-30T11:49:36.118Z,4.35
2022-07-30T11:54:34.390Z,4.53
2022-07-30T11:59:58.687Z,4.70
2022-07-30T12:04:57.499Z,4.88
2022-07-30T12:10:27.016Z,4.45
2022-07-30T12:15:42.638Z,4.03
2022-07-30T12:20:41.368Z,4.53
2022-07-30T12:25:47.772Z,4.70
2022-07-30T12:30:52.130Z,4.22
2022-07-30T12:35:59.358Z,4.28
2022-07-30T12:41:04.574Z,3.92
2022-07-30T12:46:05.350Z,5.20
2022-07-30T12:51:12.401Z,4.80
2022-07-30T12:56:19.459Z,3.85
2022-07-30T13:01:18.204Z,5.15
2022-07-30T13:06:20.496Z,4.10
2022-07-30T13:11:24.891Z,4.30
2022-07-30T13:16:24.608Z,3.60
2022-07-30T13:21:23.756Z,4.05
2022-07-30T13:26:28.023Z,3.85
2022-07-30T13:31:27.124Z,3.67
2022-07-30T13:36:44.309Z,3.67
2022-07-30T13:41:43.728Z,3.85
2022-07-30T13:46:50.421Z,3.90
2022-07-30T13:51:52.009Z,3.33
2022-07-30T13:56:53.880Z,3.75
2022-07-30T14:01:54.231Z,3.13
2022-07-30T14:06:57.721Z,3.40
2022-07-30T14:11:56.388Z,3.00
2022-07-30T14:16:55.497Z,3.40
2022-07-30T14:21:54.562Z,3.67
2022-07-30T14:26:58.008Z,3.50
2022-07-30T14:32:00.500Z,3.60
2022-07-30T14:37:02.951Z,3.65
2022-07-30T14:42:02.953Z,4.28
2022-07-30T14:47:04.517Z,4.20
2022-07-30T14:52:05.647Z,3.97
2022-07-30T14:57:07.072Z,4.13
2022-07-30T15:02:10.898Z,3.97
2022-07-30T15:07:14.421Z,3.65
2022-07-30T15:12:26.985Z,3.75
2022-07-30T15:17:31.122Z,4.43
2022-07-30T15:27:34.284Z,4.20
2022-07-30T15:32:39.391Z,3.55
2022-07-30T15:37:42.041Z,3.90
2022-07-30T15:42:43.351Z,4.35
2022-07-30T15:47:41.856Z,4.50
2022-07-30T15:52:41.265Z,4.28
2022-07-30T15:57:40.840Z,4.53
2022-07-30T16:02:39.241Z,3.50
2022-07-30T16:07:39.191Z,4.32
2022-07-30T16:12:40.126Z,4.57
2022-07-30T16:17:38.110Z,4.28
2022-07-30T16:22:36.830Z,4.88
2022-07-30T16:27:35.819Z,5.35
2022-07-30T16:32:41.402Z,5.10
2022-07-30T16:37:40.919Z,4.95
2022-07-30T16:42:40.765Z,5.40
2022-07-30T16:47:42.837Z,5.43
2022-07-30T16:52:42.839Z,5.78
2022-07-30T16:57:45.568Z,6.15
2022-07-30T17:02:45.427Z,6.13
2022-07-30T17:07:44.375Z,6.13
2022-07-30T17:12:42.577Z,5.57
2022-07-30T17:17:50.387Z,4.57
2022-07-30T17:22:50.939Z,5.50
2022-07-30T17:27:50.248Z,4.93
2022-07-30T17:32:51.728Z,6.03
2022-07-30T17:37:53.178Z,6.10
2022-07-30T17:42:52.224Z,5.15
2022-07-30T17:47:54.702Z,5.55
2022-07-30T18:11:49.929Z,5.10
2022-07-30T18:16:48.376Z,4.35
2022-07-30T18:21:47.025Z,5.60
2022-07-30T18:26:48.254Z,4.88
2022-07-30T18:31:48.030Z,5.40
2022-07-30T18:37:12.126Z,5.30
2022-07-30T18:42:16.115Z,4.72
2022-07-30T18:47:14.353Z,4.13
2022-07-30T18:52:12.436Z,5.35
2022-07-30T18:57:19.411Z,5.07
2022-07-30T19:02:33.496Z,6.05
2022-07-30T19:07:48.166Z,5.03
2022-07-30T19:13:22.114Z,4.25
2022-07-30T19:18:22.762Z,5.00
2022-07-30T19:23:22.391Z,4.68
2022-07-30T19:28:21.312Z,4.88
2022-07-30T19:33:20.918Z,4.75
2022-07-30T19:38:21.674Z,5.03
2022-07-30T19:43:25.184Z,4.45
2022-07-30T19:48:29.369Z,4.72
2022-07-30T19:53:34.407Z,4.18
2022-07-30T19:58:46.262Z,6.18
2022-07-30T20:03:49.411Z,7.85
2022-07-30T20:08:49.801Z,6.60
2022-07-30T20:24:21.168Z,3.58
2022-07-30T20:29:27.714Z,4.45
2022-07-30T20:34:27.556Z,7.07
2022-07-30T20:39:25.794Z,11.00
2022-07-30T20:44:25.569Z,11.88
2022-07-30T20:49:29.011Z,7.07
2022-07-30T20:54:35.401Z,4.57
2022-07-30T20:59:40.811Z,3.60
2022-07-30T21:04:52.780Z,3.20
2022-07-30T21:09:57.479Z,3.03
2022-07-30T21:14:58.318Z,3.58
2022-07-30T21:19:57.332Z,3.28
2022-07-30T21:25:08.258Z,3.70
2022-07-30T21:30:07.232Z,3.65
2022-07-30T21:35:08.647Z,3.95
2022-07-30T21:40:10.980Z,3.08
2022-07-30T21:45:09.960Z,3.08
2022-07-30T21:50:10.841Z,4.13
2022-07-30T21:55:13.373Z,4.28
2022-07-30T22:00:23.049Z,3.25
2022-07-30T22:05:38.303Z,3.10
2022-07-30T22:10:52.507Z,3.13
2022-07-30T22:15:59.711Z,3.00
2022-07-30T22:20:57.986Z,3.35
2022-07-30T22:26:00.180Z,3.20
2022-07-30T22:30:59.782Z,3.20
2022-07-30T22:35:59.144Z,3.45
2022-07-30T22:41:07.251Z,3.80
2022-07-30T22:46:14.745Z,2.88
2022-07-30T22:52:19.571Z,3.45
2022-07-30T22:57:03.809Z,3.55
2022-07-30T23:02:03.034Z,3.22
2022-07-30T23:07:00.935Z,3.63
2022-07-30T23:12:05.738Z,2.97
2022-07-30T23:17:06.987Z,3.25
2022-07-30T23:22:12.088Z,3.58
2022-07-30T23:27:10.393Z,3.10
2022-07-30T23:32:08.453Z,3.33
2022-07-30T23:37:10.592Z,3.70
2022-07-30T23:42:12.057Z,3.22
2022-07-30T23:47:11.713Z,3.13
2022-07-30T23:52:10.318Z,3.20
2022-07-30T23:57:09.058Z,3.25
